sensor_id;sensor_type;location;lat;lon;timestamp;P1;durP1;ratioP1;P2;durP2;ratioP2
5022;SDS011;2530;47.990;7.866;2022-10-23T00:01:28;2.70;;;1.70;;
5022;SDS011;2530;47.990;7.866;2022-10-23T00:04:06;3.00;;;1.80;;
5022;SDS011;2530;47.990;7.866;2022-10-23T00:06:36;3.33;;;1.60;;
5022;SDS011;2530;47.990;7.866;2022-10-23T00:09:03;2.33;;;1.40;;
5022;SDS011;2530;47.990;7.866;2022-10-23T00:11:29;1.80;;;1.60;;
5022;SDS011;2530;47.990;7.866;2022-10-23T00:13:56;3.10;;;1.20;;
5022;SDS011;2530;47.990;7.866;2022-10-23T00:16:25;1.33;;;1.05;;
5022;SDS011;2530;47.990;7.866;2022-10-23T00:18:52;2.28;;;1.50;;
5022;SDS011;2530;47.990;7.866;2022-10-23T00:21:17;2.70;;;1.20;;
5022;SDS011;2530;47.990;7.866;2022-10-23T00:23:44;1.60;;;1.10;;
5022;SDS011;2530;47.990;7.866;2022-10-23T00:26:11;1.40;;;1.10;;
5022;SDS011;2530;47.990;7.866;2022-10-23T00:28:43;2.03;;;1.33;;
5022;SDS011;2530;47.990;7.866;2022-10-23T00:31:11;1.80;;;1.03;;
5022;SDS011;2530;47.990;7.866;2022-10-23T00:33:36;2.20;;;1.20;;
5022;SDS011;2530;47.990;7.866;2022-10-23T00:36:03;2.40;;;1.50;;
5022;SDS011;2530;47.990;7.866;2022-10-23T00:38:30;4.35;;;1.80;;
5022;SDS011;2530;47.990;7.866;2022-10-23T00:40:56;2.27;;;1.50;;
5022;SDS011;2530;47.990;7.866;2022-10-23T00:43:22;3.90;;;1.90;;
5022;SDS011;2530;47.990;7.866;2022-10-23T00:45:50;8.05;;;1.63;;
5022;SDS011;2530;47.990;7.866;2022-10-23T00:48:16;7.40;;;1.20;;
5022;SDS011;2530;47.990;7.866;2022-10-23T00:50:42;2.30;;;1.50;;
5022;SDS011;2530;47.990;7.866;2022-10-23T00:53:10;3.40;;;1.40;;
5022;SDS011;2530;47.990;7.866;2022-10-23T00:55:37;5.90;;;1.50;;
5022;SDS011;2530;47.990;7.866;2022-10-23T00:58:03;2.35;;;1.10;;
5022;SDS011;2530;47.990;7.866;2022-10-23T01:00:48;1.73;;;1.30;;
5022;SDS011;2530;47.990;7.866;2022-10-23T01:03:19;2.65;;;1.20;;
5022;SDS011;2530;47.990;7.866;2022-10-23T01:05:53;4.18;;;1.20;;
5022;SDS011;2530;47.990;7.866;2022-10-23T01:08:51;3.22;;;1.10;;
5022;SDS011;2530;47.990;7.866;2022-10-23T01:14:15;4.80;;;1.10;;
5022;SDS011;2530;47.990;7.866;2022-10-23T01:19:45;3.90;;;1.20;;
5022;SDS011;2530;47.990;7.866;2022-10-23T01:22:32;2.10;;;0.93;;
5022;SDS011;2530;47.990;7.866;2022-10-23T01:29:06;2.63;;;1.40;;
5022;SDS011;2530;47.990;7.866;2022-10-23T01:31:15;1.23;;;0.90;;
5022;SDS011;2530;47.990;7.866;2022-10-23T01:33:46;3.10;;;1.10;;
5022;SDS011;2530;47.990;7.866;2022-10-23T01:36:15;5.00;;;1.38;;
5022;SDS011;2530;47.990;7.866;2022-10-23T01:38:55;3.38;;;1.13;;
5022;SDS011;2530;47.990;7.866;2022-10-23T01:46:39;1.80;;;1.02;;
5022;SDS011;2530;47.990;7.866;2022-10-23T01:49:07;3.50;;;1.15;;
5022;SDS011;2530;47.990;7.866;2022-10-23T01:51:35;1.60;;;1.40;;
5022;SDS011;2530;47.990;7.866;2022-10-23T01:54:03;2.87;;;1.07;;
5022;SDS011;2530;47.990;7.866;2022-10-23T01:56:33;7.13;;;1.40;;
5022;SDS011;2530;47.990;7.866;2022-10-23T01:59:03;2.13;;;0.90;;
5022;SDS011;2530;47.990;7.866;2022-10-23T02:01:31;4.00;;;1.00;;
5022;SDS011;2530;47.990;7.866;2022-10-23T02:04:00;4.60;;;1.40;;
5022;SDS011;2530;47.990;7.866;2022-10-23T02:06:29;2.70;;;0.90;;
5022;SDS011;2530;47.990;7.866;2022-10-23T02:08:55;3.00;;;0.90;;
5022;SDS011;2530;47.990;7.866;2022-10-23T02:11:21;3.30;;;1.10;;
5022;SDS011;2530;47.990;7.866;2022-10-23T02:13:55;2.57;;;1.00;;
5022;SDS011;2530;47.990;7.866;2022-10-23T02:16:43;3.60;;;1.10;;
5022;SDS011;2530;47.990;7.866;2022-10-23T02:22:08;2.10;;;1.00;;
5022;SDS011;2530;47.990;7.866;2022-10-23T02:27:12;4.97;;;1.23;;
5022;SDS011;2530;47.990;7.866;2022-10-23T02:29:44;1.67;;;1.20;;
5022;SDS011;2530;47.990;7.866;2022-10-23T02:32:16;3.43;;;1.10;;
5022;SDS011;2530;47.990;7.866;2022-10-23T02:34:44;5.70;;;1.43;;
5022;SDS011;2530;47.990;7.866;2022-10-23T02:37:10;1.63;;;1.10;;
5022;SDS011;2530;47.990;7.866;2022-10-23T02:39:35;2.30;;;1.00;;
5022;SDS011;2530;47.990;7.866;2022-10-23T02:42:05;1.85;;;1.00;;
5022;SDS011;2530;47.990;7.866;2022-10-23T03:00:37;3.13;;;1.10;;
5022;SDS011;2530;47.990;7.866;2022-10-23T03:03:09;3.25;;;1.20;;
5022;SDS011;2530;47.990;7.866;2022-10-23T03:05:39;4.95;;;1.10;;
5022;SDS011;2530;47.990;7.866;2022-10-23T03:08:09;2.20;;;1.05;;
5022;SDS011;2530;47.990;7.866;2022-10-23T03:10:38;1.42;;;0.70;;
5022;SDS011;2530;47.990;7.866;2022-10-23T03:13:04;2.78;;;0.90;;
5022;SDS011;2530;47.990;7.866;2022-10-23T03:15:30;2.15;;;0.95;;
5022;SDS011;2530;47.990;7.866;2022-10-23T03:17:56;3.53;;;1.40;;
5022;SDS011;2530;47.990;7.866;2022-10-23T03:20:21;2.80;;;0.90;;
5022;SDS011;2530;47.990;7.866;2022-10-23T03:22:47;2.07;;;0.87;;
5022;SDS011;2530;47.990;7.866;2022-10-23T03:25:12;3.78;;;1.00;;
5022;SDS011;2530;47.990;7.866;2022-10-23T03:27:38;3.80;;;1.20;;
5022;SDS011;2530;47.990;7.866;2022-10-23T03:30:04;4.32;;;1.35;;
5022;SDS011;2530;47.990;7.866;2022-10-23T03:32:30;2.00;;;1.20;;
5022;SDS011;2530;47.990;7.866;2022-10-23T03:34:56;3.43;;;0.90;;
5022;SDS011;2530;47.990;7.866;2022-10-23T03:37:21;3.80;;;1.60;;
5022;SDS011;2530;47.990;7.866;2022-10-23T03:39:47;2.77;;;0.80;;
5022;SDS011;2530;47.990;7.866;2022-10-23T03:42:12;4.33;;;0.90;;
5022;SDS011;2530;47.990;7.866;2022-10-23T03:44:38;3.60;;;1.10;;
5022;SDS011;2530;47.990;7.866;2022-10-23T03:47:03;2.47;;;1.00;;
5022;SDS011;2530;47.990;7.866;2022-10-23T03:49:29;4.10;;;0.90;;
5022;SDS011;2530;47.990;7.866;2022-10-23T03:51:55;1.20;;;0.93;;
5022;SDS011;2530;47.990;7.866;2022-10-23T03:54:21;1.77;;;1.07;;
5022;SDS011;2530;47.990;7.866;2022-10-23T03:56:48;3.40;;;1.00;;
5022;SDS011;2530;47.990;7.866;2022-10-23T03:59:14;3.00;;;0.90;;
5022;SDS011;2530;47.990;7.866;2022-10-23T04:01:39;1.85;;;0.85;;
5022;SDS011;2530;47.990;7.866;2022-10-23T04:04:05;1.70;;;1.10;;
5022;SDS011;2530;47.990;7.866;2022-10-23T04:06:30;3.90;;;1.30;;
5022;SDS011;2530;47.990;7.866;2022-10-23T04:08:56;1.20;;;0.70;;
5022;SDS011;2530;47.990;7.866;2022-10-23T04:11:21;4.40;;;1.05;;
5022;SDS011;2530;47.990;7.866;2022-10-23T04:13:47;1.35;;;0.70;;
5022;SDS011;2530;47.990;7.866;2022-10-23T04:16:13;3.70;;;0.80;;
5022;SDS011;2530;47.990;7.866;2022-10-23T04:18:39;2.83;;;0.83;;
5022;SDS011;2530;47.990;7.866;2022-10-23T04:21:05;1.08;;;0.80;;
5022;SDS011;2530;47.990;7.866;2022-10-23T04:23:31;2.27;;;0.90;;
5022;SDS011;2530;47.990;7.866;2022-10-23T04:25:56;2.15;;;1.00;;
5022;SDS011;2530;47.990;7.866;2022-10-23T04:28:22;2.30;;;1.10;;
5022;SDS011;2530;47.990;7.866;2022-10-23T04:30:48;2.15;;;0.80;;
5022;SDS011;2530;47.990;7.866;2022-10-23T04:33:13;3.60;;;0.95;;
5022;SDS011;2530;47.990;7.866;2022-10-23T04:35:39;1.30;;;0.77;;
5022;SDS011;2530;47.990;7.866;2022-10-23T04:38:05;2.83;;;0.97;;
5022;SDS011;2530;47.990;7.866;2022-10-23T04:40:32;2.60;;;0.80;;
5022;SDS011;2530;47.990;7.866;2022-10-23T04:42:58;1.10;;;0.80;;
5022;SDS011;2530;47.990;7.866;2022-10-23T04:45:24;5.10;;;0.90;;
5022;SDS011;2530;47.990;7.866;2022-10-23T04:47:49;5.20;;;0.90;;
5022;SDS011;2530;47.990;7.866;2022-10-23T04:50:17;1.17;;;0.60;;
5022;SDS011;2530;47.990;7.866;2022-10-23T04:52:43;2.40;;;0.80;;
5022;SDS011;2530;47.990;7.866;2022-10-23T04:55:08;1.70;;;0.60;;
5022;SDS011;2530;47.990;7.866;2022-10-23T04:57:34;2.87;;;0.80;;
5022;SDS011;2530;47.990;7.866;2022-10-23T05:00:00;1.70;;;0.70;;
5022;SDS011;2530;47.990;7.866;2022-10-23T05:02:25;3.60;;;0.88;;
5022;SDS011;2530;47.990;7.866;2022-10-23T05:04:51;2.20;;;0.88;;
5022;SDS011;2530;47.990;7.866;2022-10-23T05:07:17;3.50;;;1.10;;
5022;SDS011;2530;47.990;7.866;2022-10-23T05:09:42;1.50;;;0.80;;
5022;SDS011;2530;47.990;7.866;2022-10-23T05:12:08;2.70;;;1.00;;
5022;SDS011;2530;47.990;7.866;2022-10-23T05:14:34;2.40;;;0.90;;
5022;SDS011;2530;47.990;7.866;2022-10-23T05:16:59;1.33;;;0.60;;
5022;SDS011;2530;47.990;7.866;2022-10-23T05:19:35;3.50;;;0.70;;
5022;SDS011;2530;47.990;7.866;2022-10-23T05:22:05;2.08;;;1.10;;
5022;SDS011;2530;47.990;7.866;2022-10-23T05:24:31;2.40;;;0.70;;
5022;SDS011;2530;47.990;7.866;2022-10-23T05:26:56;3.60;;;0.90;;
5022;SDS011;2530;47.990;7.866;2022-10-23T05:29:22;1.30;;;1.00;;
5022;SDS011;2530;47.990;7.866;2022-10-23T05:31:48;1.40;;;0.90;;
5022;SDS011;2530;47.990;7.866;2022-10-23T05:34:17;2.10;;;0.80;;
5022;SDS011;2530;47.990;7.866;2022-10-23T05:36:46;3.00;;;1.10;;
5022;SDS011;2530;47.990;7.866;2022-10-23T05:39:12;3.95;;;0.70;;
5022;SDS011;2530;47.990;7.866;2022-10-23T05:41:38;4.40;;;1.00;;
5022;SDS011;2530;47.990;7.866;2022-10-23T05:44:03;1.80;;;0.65;;
5022;SDS011;2530;47.990;7.866;2022-10-23T05:46:29;2.60;;;1.30;;
5022;SDS011;2530;47.990;7.866;2022-10-23T05:48:54;1.00;;;0.70;;
5022;SDS011;2530;47.990;7.866;2022-10-23T05:51:21;3.28;;;0.93;;
5022;SDS011;2530;47.990;7.866;2022-10-23T05:53:47;2.35;;;0.95;;
5022;SDS011;2530;47.990;7.866;2022-10-23T05:56:13;2.70;;;0.70;;
5022;SDS011;2530;47.990;7.866;2022-10-23T05:58:39;2.10;;;0.83;;
5022;SDS011;2530;47.990;7.866;2022-10-23T06:01:08;2.00;;;0.73;;
5022;SDS011;2530;47.990;7.866;2022-10-23T06:03:35;1.70;;;0.80;;
5022;SDS011;2530;47.990;7.866;2022-10-23T06:06:01;2.13;;;0.80;;
5022;SDS011;2530;47.990;7.866;2022-10-23T06:08:28;2.75;;;0.60;;
5022;SDS011;2530;47.990;7.866;2022-10-23T06:10:54;1.50;;;0.80;;
5022;SDS011;2530;47.990;7.866;2022-10-23T06:13:20;5.57;;;1.10;;
5022;SDS011;2530;47.990;7.866;2022-10-23T06:15:45;5.40;;;0.90;;
5022;SDS011;2530;47.990;7.866;2022-10-23T06:18:11;1.50;;;0.70;;
5022;SDS011;2530;47.990;7.866;2022-10-23T06:20:37;1.83;;;1.10;;
5022;SDS011;2530;47.990;7.866;2022-10-23T06:23:04;2.00;;;1.10;;
5022;SDS011;2530;47.990;7.866;2022-10-23T06:25:30;3.60;;;0.85;;
5022;SDS011;2530;47.990;7.866;2022-10-23T06:27:56;1.30;;;1.20;;
5022;SDS011;2530;47.990;7.866;2022-10-23T06:30:21;3.97;;;1.67;;
5022;SDS011;2530;47.990;7.866;2022-10-23T06:32:47;1.50;;;0.80;;
5022;SDS011;2530;47.990;7.866;2022-10-23T06:35:13;2.37;;;0.80;;
5022;SDS011;2530;47.990;7.866;2022-10-23T06:37:39;2.10;;;1.30;;
5022;SDS011;2530;47.990;7.866;2022-10-23T06:40:04;2.80;;;0.80;;
5022;SDS011;2530;47.990;7.866;2022-10-23T06:42:31;4.32;;;1.40;;
5022;SDS011;2530;47.990;7.866;2022-10-23T06:44:57;1.90;;;1.20;;
5022;SDS011;2530;47.990;7.866;2022-10-23T06:47:22;2.10;;;0.90;;
5022;SDS011;2530;47.990;7.866;2022-10-23T06:49:48;1.50;;;0.80;;
5022;SDS011;2530;47.990;7.866;2022-10-23T06:52:13;2.63;;;0.80;;
5022;SDS011;2530;47.990;7.866;2022-10-23T06:54:39;1.00;;;0.90;;
5022;SDS011;2530;47.990;7.866;2022-10-23T06:57:04;3.10;;;1.43;;
5022;SDS011;2530;47.990;7.866;2022-10-23T06:59:30;4.80;;;1.00;;
5022;SDS011;2530;47.990;7.866;2022-10-23T07:01:55;1.73;;;1.03;;
5022;SDS011;2530;47.990;7.866;2022-10-23T07:04:21;1.95;;;1.30;;
5022;SDS011;2530;47.990;7.866;2022-10-23T07:06:47;2.13;;;0.97;;
5022;SDS011;2530;47.990;7.866;2022-10-23T07:09:12;3.40;;;0.90;;
5022;SDS011;2530;47.990;7.866;2022-10-23T07:11:38;2.35;;;0.98;;
5022;SDS011;2530;47.990;7.866;2022-10-23T07:14:03;3.08;;;1.00;;
5022;SDS011;2530;47.990;7.866;2022-10-23T07:16:29;6.07;;;1.30;;
5022;SDS011;2530;47.990;7.866;2022-10-23T07:18:56;5.43;;;1.13;;
5022;SDS011;2530;47.990;7.866;2022-10-23T07:21:25;2.30;;;1.30;;
5022;SDS011;2530;47.990;7.866;2022-10-23T07:23:54;1.17;;;0.95;;
5022;SDS011;2530;47.990;7.866;2022-10-23T07:26:20;3.10;;;1.30;;
5022;SDS011;2530;47.990;7.866;2022-10-23T07:28:47;1.10;;;1.00;;
5022;SDS011;2530;47.990;7.866;2022-10-23T07:31:14;1.80;;;1.40;;
5022;SDS011;2530;47.990;7.866;2022-10-23T07:33:40;3.40;;;1.73;;
5022;SDS011;2530;47.990;7.866;2022-10-23T07:36:06;2.87;;;1.20;;
5022;SDS011;2530;47.990;7.866;2022-10-23T07:38:32;1.65;;;1.30;;
5022;SDS011;2530;47.990;7.866;2022-10-23T07:40:59;1.90;;;1.70;;
5022;SDS011;2530;47.990;7.866;2022-10-23T07:43:25;3.60;;;1.95;;
5022;SDS011;2530;47.990;7.866;2022-10-23T07:45:51;1.67;;;1.50;;
5022;SDS011;2530;47.990;7.866;2022-10-23T07:48:17;1.73;;;1.38;;
5022;SDS011;2530;47.990;7.866;2022-10-23T07:50:44;1.67;;;1.20;;
5022;SDS011;2530;47.990;7.866;2022-10-23T07:53:15;3.90;;;1.80;;
5022;SDS011;2530;47.990;7.866;2022-10-23T07:55:50;3.90;;;1.40;;
5022;SDS011;2530;47.990;7.866;2022-10-23T07:58:17;3.90;;;1.40;;
5022;SDS011;2530;47.990;7.866;2022-10-23T08:00:42;5.50;;;1.60;;
5022;SDS011;2530;47.990;7.866;2022-10-23T08:03:09;2.40;;;1.30;;
5022;SDS011;2530;47.990;7.866;2022-10-23T08:05:36;2.28;;;1.60;;
5022;SDS011;2530;47.990;7.866;2022-10-23T08:08:02;3.40;;;1.30;;
5022;SDS011;2530;47.990;7.866;2022-10-23T08:10:28;2.08;;;1.23;;
5022;SDS011;2530;47.990;7.866;2022-10-23T08:12:53;2.58;;;1.48;;
5022;SDS011;2530;47.990;7.866;2022-10-23T08:15:19;2.20;;;1.30;;
5022;SDS011;2530;47.990;7.866;2022-10-23T08:17:44;3.57;;;1.50;;
5022;SDS011;2530;47.990;7.866;2022-10-23T08:20:10;1.35;;;1.13;;
5022;SDS011;2530;47.990;7.866;2022-10-23T08:22:37;1.23;;;1.10;;
5022;SDS011;2530;47.990;7.866;2022-10-23T08:25:03;2.60;;;1.30;;
5022;SDS011;2530;47.990;7.866;2022-10-23T08:27:29;2.83;;;1.23;;
5022;SDS011;2530;47.990;7.866;2022-10-23T08:29:55;2.33;;;1.10;;
5022;SDS011;2530;47.990;7.866;2022-10-23T08:32:21;1.20;;;1.07;;
5022;SDS011;2530;47.990;7.866;2022-10-23T08:34:46;2.30;;;1.10;;
5022;SDS011;2530;47.990;7.866;2022-10-23T08:37:12;3.25;;;1.30;;
5022;SDS011;2530;47.990;7.866;2022-10-23T08:39:37;1.73;;;0.90;;
5022;SDS011;2530;47.990;7.866;2022-10-23T08:42:03;3.20;;;1.03;;
5022;SDS011;2530;47.990;7.866;2022-10-23T08:47:02;2.03;;;0.98;;
5022;SDS011;2530;47.990;7.866;2022-10-23T08:49:52;11.35;;;1.52;;
5022;SDS011;2530;47.990;7.866;2022-10-23T08:52:35;2.83;;;0.98;;
5022;SDS011;2530;47.990;7.866;2022-10-23T08:55:20;1.30;;;0.93;;
5022;SDS011;2530;47.990;7.866;2022-10-23T08:57:50;2.28;;;1.48;;
5022;SDS011;2530;47.990;7.866;2022-10-23T09:00:18;1.48;;;0.88;;
5022;SDS011;2530;47.990;7.866;2022-10-23T09:02:45;5.95;;;2.40;;
5022;SDS011;2530;47.990;7.866;2022-10-23T09:05:18;1.40;;;1.13;;
5022;SDS011;2530;47.990;7.866;2022-10-23T09:08:03;2.72;;;1.13;;
5022;SDS011;2530;47.990;7.866;2022-10-23T09:16:24;2.97;;;1.60;;
5022;SDS011;2530;47.990;7.866;2022-10-23T09:19:17;5.63;;;2.55;;
5022;SDS011;2530;47.990;7.866;2022-10-23T09:21:47;2.35;;;1.73;;
5022;SDS011;2530;47.990;7.866;2022-10-23T09:24:14;2.42;;;1.00;;
5022;SDS011;2530;47.990;7.866;2022-10-23T09:26:44;4.18;;;1.33;;
5022;SDS011;2530;47.990;7.866;2022-10-23T09:29:19;4.20;;;2.00;;
5022;SDS011;2530;47.990;7.866;2022-10-23T09:31:58;2.35;;;1.30;;
5022;SDS011;2530;47.990;7.866;2022-10-23T09:34:26;5.18;;;1.40;;
5022;SDS011;2530;47.990;7.866;2022-10-23T09:36:58;2.40;;;1.70;;
5022;SDS011;2530;47.990;7.866;2022-10-23T09:39:42;4.00;;;2.38;;
5022;SDS011;2530;47.990;7.866;2022-10-23T09:44:51;5.10;;;1.80;;
5022;SDS011;2530;47.990;7.866;2022-10-23T09:47:18;2.10;;;1.30;;
5022;SDS011;2530;47.990;7.866;2022-10-23T09:49:47;2.13;;;1.10;;
5022;SDS011;2530;47.990;7.866;2022-10-23T09:54:45;3.10;;;1.15;;
5022;SDS011;2530;47.990;7.866;2022-10-23T09:57:21;1.38;;;1.10;;
5022;SDS011;2530;47.990;7.866;2022-10-23T09:59:51;2.35;;;1.30;;
5022;SDS011;2530;47.990;7.866;2022-10-23T10:02:29;1.60;;;1.23;;
5022;SDS011;2530;47.990;7.866;2022-10-23T10:04:56;1.40;;;1.10;;
5022;SDS011;2530;47.990;7.866;2022-10-23T10:07:24;4.28;;;1.40;;
5022;SDS011;2530;47.990;7.866;2022-10-23T10:09:52;1.98;;;1.20;;
5022;SDS011;2530;47.990;7.866;2022-10-23T10:17:53;3.78;;;1.60;;
5022;SDS011;2530;47.990;7.866;2022-10-23T10:20:42;2.80;;;1.30;;
5022;SDS011;2530;47.990;7.866;2022-10-23T10:31:29;3.57;;;2.10;;
5022;SDS011;2530;47.990;7.866;2022-10-23T10:34:10;2.97;;;1.80;;
5022;SDS011;2530;47.990;7.866;2022-10-23T10:37:06;3.30;;;1.48;;
5022;SDS011;2530;47.990;7.866;2022-10-23T10:42:38;2.05;;;1.63;;
5022;SDS011;2530;47.990;7.866;2022-10-23T10:45:12;3.88;;;2.00;;
5022;SDS011;2530;47.990;7.866;2022-10-23T10:50:47;2.73;;;1.80;;
5022;SDS011;2530;47.990;7.866;2022-10-23T10:56:44;2.70;;;1.80;;
5022;SDS011;2530;47.990;7.866;2022-10-23T10:59:14;2.80;;;2.38;;
5022;SDS011;2530;47.990;7.866;2022-10-23T11:04:44;3.30;;;2.23;;
5022;SDS011;2530;47.990;7.866;2022-10-23T11:07:17;4.20;;;2.40;;
5022;SDS011;2530;47.990;7.866;2022-10-23T11:09:45;2.83;;;2.20;;
5022;SDS011;2530;47.990;7.866;2022-10-23T11:12:18;4.10;;;2.20;;
5022;SDS011;2530;47.990;7.866;2022-10-23T11:14:47;4.63;;;2.30;;
5022;SDS011;2530;47.990;7.866;2022-10-23T11:17:26;4.03;;;2.25;;
5022;SDS011;2530;47.990;7.866;2022-10-23T11:20:17;2.58;;;2.30;;
5022;SDS011;2530;47.990;7.866;2022-10-23T11:22:54;3.95;;;2.60;;
5022;SDS011;2530;47.990;7.866;2022-10-23T11:34:07;3.80;;;2.70;;
5022;SDS011;2530;47.990;7.866;2022-10-23T11:36:57;3.10;;;2.80;;
5022;SDS011;2530;47.990;7.866;2022-10-23T11:39:29;6.63;;;3.42;;
5022;SDS011;2530;47.990;7.866;2022-10-23T11:41:57;4.20;;;2.67;;
5022;SDS011;2530;47.990;7.866;2022-10-23T11:44:44;3.57;;;2.80;;
5022;SDS011;2530;47.990;7.866;2022-10-23T11:52:32;3.30;;;2.50;;
5022;SDS011;2530;47.990;7.866;2022-10-23T11:57:42;3.17;;;2.08;;
5022;SDS011;2530;47.990;7.866;2022-10-23T12:00:28;4.30;;;2.08;;
5022;SDS011;2530;47.990;7.866;2022-10-23T12:02:55;2.65;;;2.20;;
5022;SDS011;2530;47.990;7.866;2022-10-23T12:05:31;2.63;;;2.25;;
5022;SDS011;2530;47.990;7.866;2022-10-23T12:08:02;2.65;;;2.10;;
5022;SDS011;2530;47.990;7.866;2022-10-23T12:10:32;4.10;;;2.30;;
5022;SDS011;2530;47.990;7.866;2022-10-23T12:13:01;5.40;;;2.13;;
5022;SDS011;2530;47.990;7.866;2022-10-23T12:15:28;1.90;;;1.70;;
5022;SDS011;2530;47.990;7.866;2022-10-23T12:20:56;5.67;;;2.13;;
5022;SDS011;2530;47.990;7.866;2022-10-23T12:31:54;4.00;;;2.30;;
5022;SDS011;2530;47.990;7.866;2022-10-23T12:37:49;2.70;;;2.00;;
5022;SDS011;2530;47.990;7.866;2022-10-23T12:40:23;2.72;;;2.10;;
5022;SDS011;2530;47.990;7.866;2022-10-23T12:42:54;2.60;;;2.00;;
5022;SDS011;2530;47.990;7.866;2022-10-23T12:45:22;4.20;;;1.90;;
5022;SDS011;2530;47.990;7.866;2022-10-23T12:47:52;4.15;;;2.30;;
5022;SDS011;2530;47.990;7.866;2022-10-23T12:50:19;4.20;;;1.90;;
5022;SDS011;2530;47.990;7.866;2022-10-23T12:55:21;4.38;;;2.00;;
5022;SDS011;2530;47.990;7.866;2022-10-23T12:57:47;3.30;;;1.80;;
5022;SDS011;2530;47.990;7.866;2022-10-23T13:00:14;2.97;;;1.57;;
5022;SDS011;2530;47.990;7.866;2022-10-23T13:02:42;2.70;;;1.80;;
5022;SDS011;2530;47.990;7.866;2022-10-23T13:05:09;3.35;;;2.20;;
5022;SDS011;2530;47.990;7.866;2022-10-23T13:07:41;3.70;;;2.05;;
5022;SDS011;2530;47.990;7.866;2022-10-23T13:10:13;3.20;;;2.10;;
5022;SDS011;2530;47.990;7.866;2022-10-23T13:12:41;3.17;;;2.20;;
5022;SDS011;2530;47.990;7.866;2022-10-23T13:20:24;3.50;;;2.40;;
5022;SDS011;2530;47.990;7.866;2022-10-23T13:23:00;2.43;;;1.80;;
5022;SDS011;2530;47.990;7.866;2022-10-23T13:25:36;5.10;;;2.50;;
5022;SDS011;2530;47.990;7.866;2022-10-23T13:28:14;3.53;;;2.15;;
5022;SDS011;2530;47.990;7.866;2022-10-23T13:30:45;4.30;;;2.30;;
5022;SDS011;2530;47.990;7.866;2022-10-23T13:33:25;3.50;;;2.00;;
5022;SDS011;2530;47.990;7.866;2022-10-23T13:35:56;3.15;;;2.08;;
5022;SDS011;2530;47.990;7.866;2022-10-23T13:38:27;2.57;;;2.30;;
5022;SDS011;2530;47.990;7.866;2022-10-23T13:40:57;3.95;;;2.28;;
5022;SDS011;2530;47.990;7.866;2022-10-23T13:43:24;3.92;;;2.70;;
5022;SDS011;2530;47.990;7.866;2022-10-23T13:45:50;5.30;;;2.42;;
5022;SDS011;2530;47.990;7.866;2022-10-23T13:48:16;3.13;;;2.00;;
5022;SDS011;2530;47.990;7.866;2022-10-23T13:50:44;5.60;;;2.30;;
5022;SDS011;2530;47.990;7.866;2022-10-23T13:53:11;7.80;;;2.80;;
5022;SDS011;2530;47.990;7.866;2022-10-23T13:55:37;4.30;;;2.30;;
5022;SDS011;2530;47.990;7.866;2022-10-23T13:58:05;5.05;;;2.40;;
5022;SDS011;2530;47.990;7.866;2022-10-23T14:00:30;4.07;;;2.00;;
5022;SDS011;2530;47.990;7.866;2022-10-23T14:02:56;3.20;;;1.85;;
5022;SDS011;2530;47.990;7.866;2022-10-23T14:05:21;3.10;;;2.07;;
5022;SDS011;2530;47.990;7.866;2022-10-23T14:07:47;3.67;;;1.80;;
5022;SDS011;2530;47.990;7.866;2022-10-23T14:10:13;6.30;;;2.27;;
5022;SDS011;2530;47.990;7.866;2022-10-23T14:12:39;3.55;;;2.15;;
5022;SDS011;2530;47.990;7.866;2022-10-23T14:15:05;3.00;;;2.15;;
5022;SDS011;2530;47.990;7.866;2022-10-23T14:17:32;3.40;;;2.20;;
5022;SDS011;2530;47.990;7.866;2022-10-23T14:19:58;9.80;;;2.90;;
5022;SDS011;2530;47.990;7.866;2022-10-23T14:22:24;4.60;;;2.23;;
5022;SDS011;2530;47.990;7.866;2022-10-23T14:24:50;3.20;;;2.03;;
5022;SDS011;2530;47.990;7.866;2022-10-23T14:27:16;4.43;;;2.10;;
5022;SDS011;2530;47.990;7.866;2022-10-23T14:29:42;4.85;;;2.30;;
5022;SDS011;2530;47.990;7.866;2022-10-23T14:32:07;3.80;;;2.87;;
5022;SDS011;2530;47.990;7.866;2022-10-23T14:34:33;8.07;;;2.78;;
5022;SDS011;2530;47.990;7.866;2022-10-23T14:36:59;1.93;;;1.83;;
5022;SDS011;2530;47.990;7.866;2022-10-23T14:39:24;4.30;;;1.90;;
5022;SDS011;2530;47.990;7.866;2022-10-23T14:41:50;4.60;;;2.20;;
5022;SDS011;2530;47.990;7.866;2022-10-23T14:44:15;5.00;;;2.60;;
5022;SDS011;2530;47.990;7.866;2022-10-23T14:46:41;2.80;;;1.97;;
5022;SDS011;2530;47.990;7.866;2022-10-23T14:49:06;2.50;;;2.10;;
5022;SDS011;2530;47.990;7.866;2022-10-23T14:51:32;6.57;;;2.50;;
5022;SDS011;2530;47.990;7.866;2022-10-23T14:53:58;5.97;;;2.50;;
5022;SDS011;2530;47.990;7.866;2022-10-23T14:56:26;4.43;;;2.50;;
5022;SDS011;2530;47.990;7.866;2022-10-23T14:58:53;4.07;;;2.72;;
5022;SDS011;2530;47.990;7.866;2022-10-23T15:01:26;5.50;;;2.70;;
5022;SDS011;2530;47.990;7.866;2022-10-23T15:03:56;4.55;;;3.13;;
5022;SDS011;2530;47.990;7.866;2022-10-23T15:06:21;4.77;;;2.73;;
5022;SDS011;2530;47.990;7.866;2022-10-23T15:08:52;5.85;;;2.85;;
5022;SDS011;2530;47.990;7.866;2022-10-23T15:11:19;5.72;;;2.40;;
5022;SDS011;2530;47.990;7.866;2022-10-23T15:13:45;6.38;;;2.70;;
5022;SDS011;2530;47.990;7.866;2022-10-23T15:16:11;5.30;;;4.00;;
5022;SDS011;2530;47.990;7.866;2022-10-23T15:18:37;5.03;;;3.10;;
5022;SDS011;2530;47.990;7.866;2022-10-23T15:21:03;5.17;;;3.13;;
5022;SDS011;2530;47.990;7.866;2022-10-23T15:23:30;4.57;;;2.70;;
5022;SDS011;2530;47.990;7.866;2022-10-23T15:25:59;5.10;;;2.53;;
5022;SDS011;2530;47.990;7.866;2022-10-23T15:28:26;5.30;;;2.30;;
5022;SDS011;2530;47.990;7.866;2022-10-23T15:30:53;4.60;;;3.00;;
5022;SDS011;2530;47.990;7.866;2022-10-23T15:33:18;5.10;;;2.63;;
5022;SDS011;2530;47.990;7.866;2022-10-23T15:35:45;5.38;;;2.80;;
5022;SDS011;2530;47.990;7.866;2022-10-23T15:38:10;7.18;;;2.85;;
5022;SDS011;2530;47.990;7.866;2022-10-23T15:40:37;4.23;;;3.30;;
5022;SDS011;2530;47.990;7.866;2022-10-23T15:43:02;5.15;;;3.00;;
5022;SDS011;2530;47.990;7.866;2022-10-23T15:45:29;5.28;;;3.05;;
5022;SDS011;2530;47.990;7.866;2022-10-23T15:47:55;8.15;;;3.47;;
5022;SDS011;2530;47.990;7.866;2022-10-23T15:50:21;5.43;;;3.28;;
5022;SDS011;2530;47.990;7.866;2022-10-23T15:52:46;8.45;;;3.10;;
5022;SDS011;2530;47.990;7.866;2022-10-23T15:55:12;7.80;;;2.80;;
5022;SDS011;2530;47.990;7.866;2022-10-23T15:57:38;6.93;;;3.33;;
5022;SDS011;2530;47.990;7.866;2022-10-23T16:00:05;10.75;;;3.80;;
5022;SDS011;2530;47.990;7.866;2022-10-23T16:02:32;6.45;;;2.80;;
5022;SDS011;2530;47.990;7.866;2022-10-23T16:04:58;6.73;;;3.10;;
5022;SDS011;2530;47.990;7.866;2022-10-23T16:07:24;8.53;;;3.30;;
5022;SDS011;2530;47.990;7.866;2022-10-23T16:09:49;6.15;;;3.15;;
5022;SDS011;2530;47.990;7.866;2022-10-23T16:12:15;6.87;;;3.40;;
5022;SDS011;2530;47.990;7.866;2022-10-23T16:14:42;10.13;;;3.45;;
5022;SDS011;2530;47.990;7.866;2022-10-23T16:17:07;8.02;;;3.75;;
5022;SDS011;2530;47.990;7.866;2022-10-23T16:19:33;9.88;;;3.33;;
5022;SDS011;2530;47.990;7.866;2022-10-23T16:21:59;9.30;;;3.80;;
5022;SDS011;2530;47.990;7.866;2022-10-23T16:24:25;8.03;;;4.70;;
5022;SDS011;2530;47.990;7.866;2022-10-23T16:26:50;9.48;;;4.78;;
5022;SDS011;2530;47.990;7.866;2022-10-23T16:29:17;7.70;;;4.32;;
5022;SDS011;2530;47.990;7.866;2022-10-23T16:31:49;11.48;;;4.50;;
5022;SDS011;2530;47.990;7.866;2022-10-23T16:34:14;7.95;;;3.60;;
5022;SDS011;2530;47.990;7.866;2022-10-23T16:36:40;11.43;;;4.90;;
5022;SDS011;2530;47.990;7.866;2022-10-23T16:39:07;12.15;;;4.50;;
5022;SDS011;2530;47.990;7.866;2022-10-23T16:47:24;8.97;;;3.50;;
5022;SDS011;2530;47.990;7.866;2022-10-23T16:49:52;11.50;;;4.50;;
5022;SDS011;2530;47.990;7.866;2022-10-23T16:52:18;12.27;;;3.85;;
5022;SDS011;2530;47.990;7.866;2022-10-23T16:54:45;11.23;;;3.90;;
5022;SDS011;2530;47.990;7.866;2022-10-23T16:57:10;10.48;;;3.80;;
5022;SDS011;2530;47.990;7.866;2022-10-23T16:59:36;10.35;;;5.40;;
5022;SDS011;2530;47.990;7.866;2022-10-23T17:02:05;15.50;;;3.80;;
5022;SDS011;2530;47.990;7.866;2022-10-23T17:04:30;9.75;;;6.50;;
5022;SDS011;2530;47.990;7.866;2022-10-23T17:06:56;11.05;;;5.30;;
5022;SDS011;2530;47.990;7.866;2022-10-23T17:09:21;18.10;;;14.67;;
5022;SDS011;2530;47.990;7.866;2022-10-23T17:11:47;11.07;;;5.25;;
5022;SDS011;2530;47.990;7.866;2022-10-23T17:14:16;12.15;;;4.78;;
5022;SDS011;2530;47.990;7.866;2022-10-23T17:16:48;9.68;;;5.50;;
5022;SDS011;2530;47.990;7.866;2022-10-23T17:19:15;10.55;;;5.30;;
5022;SDS011;2530;47.990;7.866;2022-10-23T17:21:43;7.43;;;4.30;;
5022;SDS011;2530;47.990;7.866;2022-10-23T17:24:09;9.60;;;4.40;;